Data for 08/13/2018

Time Sea-Level Adjusted Pressure Absolute Pressure Temperature Relative Humidity Dew Point   
(mb) (inHg) (mb) (inHg) (C) (F) (%) (C) (F)
00:05 1021 30.15 850 25.1 19.5 67.2 27 0.2 32.4
00:10 1021 30.15 850 25.1 19.5 67.1 27 0.3 32.5
00:15 1021 30.15 850 25.1 19.3 66.8 28 0.4 32.7
00:20 1021 30.15 850 25.1 19.2 66.5 28 0.3 32.5
00:25 1021 30.15 850 25.1 19 66.2 29 0.5 33
00:30 1021 30.15 850 25.1 18.8 65.9 29 0.6 33.1
00:35 1021 30.15 850 25.1 18.6 65.5 29 0.4 32.7
00:40 1021 30.15 850 25.1 18.5 65.4 29 0.3 32.5
00:45 1021 30.15 850 25.1 18.6 65.5 28 0.1 32.1
00:50 1021 30.15 850 25.1 18.8 65.8 28 -0.1 31.8
00:55 1021 30.15 850 25.1 18.9 66 27 -0.2 31.7
01:00 1021 30.15 850 25.1 18.8 65.8 28 0.1 32.2
01:05 1021 30.15 850 25.1 18.5 65.3 30 0.8 33.4
01:10 1021 30.15 850 25.1 17.5 63.4 35 1.8 35.2
01:15 1021 30.15 851 25.13 17 62.6 34 1 33.8
01:20 1021 30.15 851 25.13 17.1 62.7 34 1.4 34.4
01:25 1021 30.15 851 25.13 16.9 62.3 36 1.7 35
01:30 1021 30.15 851 25.13 16.6 61.9 33 0.3 32.6
01:35 1021 30.15 851 25.13 16.9 62.4 32 0.4 32.7
01:40 1022 30.18 851 25.13 16.7 62.1 34 0.7 33.3
01:45 1022 30.18 851 25.13 16.2 61.2 37 1.6 35
01:50 1022 30.18 851 25.13 15.9 60.7 36 1.1 34
01:55 1022 30.18 851 25.13 16 60.8 34 0.3 32.6
02:00 1022 30.18 851 25.13 16.2 61.1 36 1.2 34.2
02:05 1022 30.18 851 25.13 16.1 61 33 0 32
02:10 1022 30.18 851 25.13 16.5 61.6 33 0.3 32.5
02:15 1022 30.18 851 25.13 16.2 61.2 35 0.9 33.5
02:20 1022 30.18 851 25.13 15.7 60.2 41 2.5 36.4
02:25 1022 30.18 851 25.13 14.8 58.6 44 2.6 36.6
02:30 1022 30.18 851 25.13 14.5 58.1 42 1.7 35
02:35 1022 30.18 851 25.13 14.7 58.4 41 1.7 35.1
02:40 1022 30.18 851 25.13 14.8 58.6 40 1.4 34.5
02:45 1022 30.18 851 25.13 14.9 58.8 39 1.1 33.9
02:50 1022 30.18 851 25.13 15 59.1 39 1.2 34.2
02:55 1022 30.18 851 25.13 15.3 59.5 37 0.7 33.3
03:00 1022 30.18 851 25.13 15.3 59.5 38 1.2 34.2
03:05 1022 30.18 851 25.13 15 59 39 1.3 34.4
03:10 1022 30.18 851 25.13 14.9 58.7 39 1.2 34.1
03:15 1022 30.18 851 25.13 14.9 58.8 38 0.8 33.5
03:20 1022 30.18 851 25.13 15 58.9 38 0.7 33.3
03:25 1022 30.18 851 25.13 14.9 58.9 39 1.1 34
03:30 1022 30.18 851 25.13 14.7 58.5 38 0.7 33.3
03:35 1022 30.18 851 25.13 14.7 58.4 39 1 33.8
03:40 1022 30.18 851 25.13 14.6 58.3 38 0.7 33.2
03:45 1022 30.18 851 25.13 14.5 58.2 39 1 33.8
03:50 1022 30.18 851 25.13 14.5 58.1 39 0.7 33.3
03:55 1022 30.18 851 25.13 14.7 58.5 36 0.1 32.2
04:00 1022 30.18 852 25.16 15 58.9 37 0.7 33.2
04:05 1022 30.18 852 25.16 14.6 58.2 41 1.4 34.6
04:10 1022 30.18 852 25.16 14 57.2 43 1.8 35.2
04:15 1022 30.18 852 25.16 13.8 56.8 42 1.3 34.4
04:20 1022 30.18 852 25.16 13.9 56.9 42 1.1 34.1
04:25 1022 30.18 852 25.16 13.9 56.9 42 1.1 34
04:30 1022 30.18 852 25.16 14 57.2 42 1.3 34.3
04:35 1022 30.18 852 25.16 13.9 57.1 42 1.4 34.5
04:40 1022 30.18 852 25.16 13.7 56.7 41 0.9 33.6
04:45 1022 30.18 852 25.16 14 57.1 40 0.8 33.4
04:50 1023 30.21 852 25.16 14.1 57.3 41 1.1 34
04:55 1023 30.21 852 25.16 13.7 56.6 43 1.3 34.3
05:00 1022 30.18 852 25.16 13.5 56.3 43 1.3 34.3
05:05 1022 30.18 852 25.16 13.4 56.2 43 1.1 34
05:10 1023 30.21 852 25.16 13.4 56.1 43 1.1 34
05:15 1023 30.21 852 25.16 13.4 56.1 45 1.9 35.3
05:20 1023 30.21 852 25.16 13.1 55.7 44 1.2 34.1
05:25 1023 30.21 852 25.16 13.2 55.8 43 1.1 34.1
05:30 1023 30.21 852 25.16 13.1 55.6 46 1.7 35
05:35 1023 30.21 852 25.16 13.3 56 42 0.9 33.6
05:40 1023 30.21 852 25.16 12.9 55.3 48 2.2 36
05:45 1023 30.21 852 25.16 12.1 53.8 49 1.6 34.9
05:50 1023 30.21 852 25.16 12 53.7 49 1.8 35.2
05:55 1023 30.21 852 25.16 11.8 53.3 51 2.1 35.8
06:00 1023 30.21 852 25.16 11.8 53.2 52 2.4 36.2
06:05 1023 30.21 852 25.16 11.6 52.9 51 1.9 35.4
06:10 1023 30.21 852 25.16 11.8 53.3 50 1.7 35
06:15 1023 30.21 852 25.16 12 53.5 51 2.1 35.8
06:20 1023 30.21 852 25.16 12 53.5 51 2.1 35.8
06:25 1023 30.21 852 25.16 11.9 53.4 50 1.7 35.1
06:30 1023 30.21 852 25.16 12.4 54.3 47 1.5 34.8
06:35 1023 30.21 852 25.16 12.7 54.9 47 1.8 35.3
06:40 1023 30.21 852 25.16 12.8 55.1 47 2 35.6
06:45 1023 30.21 852 25.16 13 55.4 46 1.9 35.4
06:50 1023 30.21 852 25.16 13.2 55.7 47 2.1 35.7
06:55 1023 30.21 852 25.16 13.6 56.4 44 1.7 35.1
07:00 1023 30.21 852 25.16 13.9 57 44 1.8 35.2
07:05 1023 30.21 852 25.16 14.3 57.8 42 1.8 35.3
07:10 1023 30.21 852 25.16 14.6 58.3 44 2.5 36.5
07:15 1023 30.21 852 25.16 14.7 58.4 44 2.7 36.8
07:20 1023 30.21 852 25.16 14.7 58.5 46 3.2 37.8
07:25 1023 30.21 852 25.16 15.1 59.2 45 3.3 38
07:30 1023 30.21 852 25.16 15.3 59.5 44 3.3 38
07:35 1023 30.21 852 25.16 15.6 60 43 3.2 37.8
07:40 1023 30.21 852 25.16 15.9 60.7 41 2.9 37.2
07:45 1023 30.21 852 25.16 16.6 61.8 39 2.6 36.7
07:50 1023 30.21 852 25.16 17.1 62.8 38 2.7 36.8
07:55 1023 30.21 852 25.16 17.4 63.3 36 2.4 36.4
08:00 1023 30.21 852 25.16 17.6 63.7 37 2.9 37.2
08:05 1022 30.18 852 25.16 17.7 63.8 36 2.5 36.5
08:10 1022 30.18 852 25.16 17.7 63.8 37 3.1 37.5
08:15 1023 30.21 852 25.16 17.9 64.3 37 3.3 38
08:20 1022 30.18 852 25.16 18.2 64.8 38 3.7 38.7
08:25 1022 30.18 852 25.16 18.3 64.9 38 3.8 38.9
08:30 1022 30.18 852 25.16 18.4 65.2 39 4.2 39.6
08:35 1023 30.21 852 25.16 18.6 65.5 39 4.3 39.8
08:40 1023 30.21 852 25.16 18.8 65.9 39 4.6 40.2
08:45 1023 30.21 852 25.16 19.1 66.4 35 3.3 37.9
08:50 1023 30.21 852 25.16 18.4 65 37 3.4 38.1
08:55 1023 30.21 852 25.16 18.2 64.7 39 4.1 39.4
09:00 1023 30.21 852 25.16 18.8 65.8 38 4.2 39.6
09:05 1023 30.21 852 25.16 18.4 65.1 38 3.9 38.9
09:10 1023 30.21 852 25.16 19.4 66.8 36 4.1 39.4
09:15 1023 30.21 852 25.16 18.9 66 38 4.4 39.9
09:20 1023 30.21 852 25.16 19.5 67 36 4.2 39.5
09:25 1023 30.21 852 25.16 19.6 67.3 35 3.9 39.1
09:30 1023 30.21 852 25.16 19.6 67.2 35 3.7 38.7
09:35 1023 30.21 852 25.16 20 67.9 35 4.2 39.6
09:40 1023 30.21 852 25.16 19.7 67.5 36 4.6 40.2
09:45 1023 30.21 852 25.16 19.4 66.9 36 4.1 39.4
09:50 1023 30.21 852 25.16 20.4 68.7 33 3.9 39
09:55 1022 30.18 852 25.16 20.6 69 37 5.7 42.3
10:00 1022 30.18 852 25.16 20.5 68.9 36 5 41.1
10:05 1022 30.18 852 25.16 21.1 69.9 35 5.4 41.7
10:10 1022 30.18 852 25.16 20.8 69.4 35 5.1 41.2
10:15 1022 30.18 852 25.16 21.1 69.9 35 5.2 41.3
10:20 1022 30.18 852 25.16 21.5 70.7 34 5 41
10:25 1022 30.18 852 25.16 21.2 70.1 35 5.2 41.3
10:30 1022 30.18 851 25.13 21.4 70.6 33 4.6 40.2
10:35 1022 30.18 852 25.16 20.9 69.6 33 4.3 39.8
10:40 1022 30.18 851 25.13 21.3 70.3 33 4.5 40.1
10:45 1022 30.18 851 25.13 22.3 72.2 31 4.5 40
10:50 1022 30.18 851 25.13 22.6 72.7 31 4.9 40.8
10:55 1022 30.18 851 25.13 22.2 72 32 5.2 41.3
11:00 1022 30.18 851 25.13 22.2 71.9 32 5.1 41.1
11:05 1022 30.18 851 25.13 22.8 73.1 31 5.1 41.1
11:10 1022 30.18 851 25.13 22.4 72.2 32 5.1 41.2
11:15 1022 30.18 851 25.13 22.6 72.7 32 5.1 41.2
11:20 1022 30.18 851 25.13 22.7 72.9 32 5.5 41.9
11:25 1022 30.18 851 25.13 22.9 73.2 31 5.1 41.2
11:30 1022 30.18 851 25.13 23.1 73.5 31 5.3 41.5
11:35 1022 30.18 851 25.13 23.6 74.5 30 5.5 41.8
11:40 1022 30.18 851 25.13 23.1 73.5 31 5.3 41.6
11:45 1022 30.18 851 25.13 23.3 73.9 30 4.8 40.6
11:50 1021 30.15 851 25.13 23.8 74.8 30 5.4 41.7
11:55 1021 30.15 851 25.13 23.8 74.9 28 4.5 40.2
12:00 1021 30.15 851 25.13 23.3 73.9 30 5 41
12:05 1021 30.15 851 25.13 23.3 73.9 29 4.7 40.4
12:10 1021 30.15 851 25.13 24.1 75.3 28 4.7 40.5
12:15 1021 30.15 850 25.1 23.8 74.8 29 5 41
12:20 1021 30.15 850 25.1 23.9 74.9 28 4.5 40.1
12:25 1021 30.15 850 25.1 24 75.2 30 5.4 41.7
12:30 1021 30.15 850 25.1 24.2 75.6 28 4.8 40.7
12:35 1021 30.15 850 25.1 24.3 75.8 29 5.3 41.5
12:40 1021 30.15 850 25.1 24 75.2 29 5.2 41.4
12:45 1021 30.15 850 25.1 24 75.3 29 4.9 40.9
12:50 1021 30.15 850 25.1 24.2 75.5 29 5.2 41.4
12:55 1021 30.15 850 25.1 25 77 26 4.7 40.4
13:00 1021 30.15 850 25.1 25 77 28 5.6 42.1
13:05 1021 30.15 850 25.1 25 77 29 6.1 42.9
13:10 1021 30.15 850 25.1 24.8 76.6 28 5.1 41.1
13:15 1021 30.15 850 25.1 24.8 76.7 28 5.2 41.3
13:20 1021 30.15 850 25.1 25.5 77.9 27 5.2 41.4
13:25 1021 30.15 850 25.1 25.6 78 27 5.4 41.8
13:30 1021 30.15 850 25.1 25.4 77.6 28 5.5 42
13:35 1021 30.15 850 25.1 24.9 76.7 28 5.5 41.9
13:40 1021 30.15 850 25.1 25.3 77.5 27 5.4 41.7
13:45 1021 30.15 850 25.1 25.3 77.5 27 5.4 41.7
13:50 1021 30.15 850 25.1 26.1 78.9 26 5.3 41.5
13:55 1020 30.12 850 25.1 26.2 79.2 27 5.8 42.5
14:00 1020 30.12 850 25.1 25.5 78 27 5.6 42
14:05 1020 30.12 850 25.1 25.5 77.9 28 5.7 42.3
14:10 1020 30.12 850 25.1 25.5 77.9 27 5.2 41.4
14:15 1020 30.12 849 25.07 25.6 78.2 28 6 42.8
14:20 1020 30.12 849 25.07 25.6 78 28 6 42.8
14:25 1020 30.12 849 25.07 25.6 78 28 6.1 42.9
14:30 1020 30.12 849 25.07 26 78.8 27 5.6 42.1
14:35 1020 30.12 849 25.07 25.6 78.1 28 6.1 43.1
14:40 1020 30.12 849 25.07 25.3 77.5 29 6 42.8
14:45 1020 30.12 849 25.07 25.3 77.6 28 5.6 42.1
14:50 1020 30.12 849 25.07 25.4 77.6 28 6 42.7
14:55 1020 30.12 849 25.07 25.1 77.1 29 6.1 43
15:00 1020 30.12 849 25.07 25.2 77.4 29 6.1 42.9
15:05 1020 30.12 849 25.07 24.9 76.9 29 6.1 42.9
15:10 1020 30.12 849 25.07 25.2 77.3 29 6 42.9
15:15 1020 30.12 849 25.07 25.1 77.2 28 5.6 42
15:20 1020 30.12 849 25.07 25 77 29 5.8 42.4
15:25 1020 30.12 849 25.07 24.9 76.9 29 5.8 42.5
15:30 1020 30.12 849 25.07 25 77 29 5.9 42.6
15:35 1020 30.12 849 25.07 24.8 76.6 29 6 42.7
15:40 1020 30.12 849 25.07 24.7 76.5 29 5.5 42
15:45 1020 30.12 849 25.07 24.7 76.5 30 6 42.8
15:50 1020 30.12 849 25.07 24.6 76.3 29 5.8 42.5
15:55 1019 30.09 849 25.07 24.6 76.3 29 5.9 42.6
16:00 1019 30.09 849 25.07 24.8 76.7 30 6.1 43.1
16:05 1019 30.09 849 25.07 24.5 76.2 30 6 42.9
16:10 1019 30.09 849 25.07 24.3 75.8 31 6.1 43
16:15 1019 30.09 849 25.07 24.1 75.5 31 6.2 43.2
16:20 1019 30.09 849 25.07 24 75.3 31 6.3 43.3
16:25 1019 30.09 849 25.07 24 75.2 31 5.9 42.7
16:30 1019 30.09 849 25.07 23.8 74.8 32 6.3 43.4
16:35 1019 30.09 849 25.07 23.7 74.7 32 6.3 43.3
16:40 1019 30.09 849 25.07 23.6 74.5 32 6.2 43.1
16:45 1019 30.09 849 25.07 23.4 74.2 32 6 42.9
16:50 1019 30.09 849 25.07 23.2 73.8 32 5.9 42.7
16:55 1019 30.09 849 25.07 23.2 73.8 33 6.2 43.2
17:00 1019 30.09 849 25.07 23.1 73.6 33 6.2 43.1
17:05 1019 30.09 849 25.07 23 73.3 33 6.1 43
17:10 1019 30.09 849 25.07 22.9 73.1 34 6.2 43.1
17:15 1019 30.09 849 25.07 22.8 73 34 6.3 43.4
17:20 1019 30.09 849 25.07 22.8 73 34 6.1 43
17:25 1019 30.09 849 25.07 22.6 72.8 34 6.4 43.4
17:30 1019 30.09 849 25.07 22.5 72.6 35 6.4 43.5
17:35 1019 30.09 849 25.07 22.4 72.2 35 6.5 43.7
17:40 1019 30.09 849 25.07 22.4 72.2 35 6.5 43.7
17:45 1020 30.12 849 25.07 22.2 71.9 36 6.5 43.8
17:50 1020 30.12 849 25.07 22.1 71.7 36 6.3 43.4
17:55 1019 30.09 849 25.07 21.9 71.4 36 6.3 43.3
18:00 1019 30.09 849 25.07 21.7 71.1 37 6.4 43.6
18:05 1019 30.09 849 25.07 21.6 70.9 36 6.1 43
18:10 1019 30.09 849 25.07 21.5 70.6 36 6 42.8
18:15 1019 30.09 849 25.07 21.3 70.4 37 6.1 43
18:20 1019 30.09 849 25.07 21.2 70.2 37 6.1 42.9
18:25 1019 30.09 849 25.07 21.1 69.9 38 6.2 43.2
18:30 1019 30.09 849 25.07 21 69.7 38 6.5 43.6
18:35 1019 30.09 849 25.07 20.9 69.5 39 6.6 43.9
18:40 1019 30.09 849 25.07 20.8 69.4 40 6.9 44.4
18:45 1019 30.09 849 25.07 20.7 69.2 41 7.1 44.7
18:50 1019 30.09 849 25.07 20.6 69.1 42 7.3 45.1
18:55 1019 30.09 849 25.07 20.4 68.8 42 7.3 45.1
19:00 1020 30.12 849 25.07 20.3 68.6 43 7.4 45.4
19:05 1020 30.12 849 25.07 20.2 68.4 43 7.4 45.4
19:10 1020 30.12 849 25.07 20.1 68.2 44 7.5 45.6
19:15 1020 30.12 849 25.07 20 68 44 7.6 45.7
19:20 1020 30.12 849 25.07 19.9 67.8 45 7.6 45.7
19:25 1020 30.12 849 25.07 19.8 67.7 45 7.7 45.8
19:30 1020 30.12 849 25.07 19.7 67.5 45 7.7 45.9
19:35 1020 30.12 849 25.07 19.6 67.3 46 7.7 45.8
19:40 1020 30.12 849 25.07 19.5 67.2 46 7.8 46
19:45 1020 30.12 849 25.07 19.4 66.9 46 7.7 45.8
19:50 1020 30.12 849 25.07 19.3 66.7 46 7.6 45.8
19:55 1020 30.12 849 25.07 19.2 66.6 47 7.7 45.8
20:00 1020 30.12 849 25.07 19.2 66.5 47 7.7 45.9
20:05 1020 30.12 849 25.07 19.1 66.3 47 7.7 45.9
20:10 1020 30.12 849 25.07 19 66.2 47 7.7 45.9
20:15 1020 30.12 849 25.07 19 66.2 47 7.7 45.8
20:20 1020 30.12 849 25.07 19 66.1 47 7.6 45.7
20:25 1020 30.12 849 25.07 18.9 66.1 47 7.6 45.7
20:30 1020 30.12 849 25.07 18.9 66 47 7.5 45.6
20:35 1020 30.12 849 25.07 18.8 65.9 47 7.6 45.6
20:40 1020 30.12 849 25.07 18.8 65.8 47 7.3 45.2
20:45 1020 30.12 850 25.1 18.8 65.8 47 7.3 45.1
20:50 1020 30.12 850 25.1 18.8 65.8 46 7.1 44.7
20:55 1020 30.12 850 25.1 18.8 65.8 46 7 44.5
21:00 1020 30.12 850 25.1 18.6 65.6 46 6.8 44.2
21:05 1020 30.12 850 25.1 18.5 65.4 45 6.6 43.8
21:10 1020 30.12 850 25.1 18.5 65.2 45 6.3 43.4
21:15 1020 30.12 850 25.1 18.5 65.2 45 6.3 43.3
21:20 1020 30.12 850 25.1 18.4 65.1 45 6.2 43.2
21:25 1020 30.12 850 25.1 18.3 64.9 44 6.1 43
21:30 1020 30.12 849 25.07 18.2 64.8 44 6 42.9
21:35 1020 30.12 850 25.1 18.1 64.6 45 6.1 42.9
21:40 1020 30.12 850 25.1 18.1 64.5 45 6 42.8
21:45 1020 30.12 850 25.1 18 64.4 45 6 42.8
21:50 1021 30.15 850 25.1 17.9 64.3 45 6 42.8
21:55 1020 30.12 850 25.1 17.8 64.1 46 6.1 42.9
22:00 1021 30.15 850 25.1 17.7 63.8 46 6.1 42.9
22:05 1021 30.15 850 25.1 17.6 63.6 46 6 42.7
22:10 1021 30.15 850 25.1 17.5 63.5 46 5.9 42.6
22:15 1021 30.15 850 25.1 17.4 63.4 46 5.9 42.7
22:20 1021 30.15 850 25.1 17.3 63.1 47 5.8 42.5
22:25 1021 30.15 850 25.1 17.2 62.9 47 5.8 42.5
22:30 1021 30.15 850 25.1 17.1 62.8 46 5.7 42.2
22:35 1021 30.15 850 25.1 17.1 62.7 46 5.6 42.1
22:40 1021 30.15 850 25.1 17 62.7 47 5.7 42.2
22:45 1021 30.15 850 25.1 17 62.5 47 5.6 42.1
22:50 1021 30.15 850 25.1 16.9 62.4 47 5.5 42
22:55 1021 30.15 850 25.1 16.9 62.4 47 5.6 42.1
23:00 1021 30.15 850 25.1 16.8 62.2 48 5.7 42.2
23:05 1021 30.15 850 25.1 16.7 62 48 5.7 42.2
23:10 1021 30.15 850 25.1 16.6 61.9 48 5.6 42.1
23:15 1021 30.15 850 25.1 16.6 61.9 48 5.6 42.1
23:20 1021 30.15 850 25.1 16.6 61.9 48 5.6 42.2
23:25 1021 30.15 850 25.1 16.6 61.8 48 5.6 42.1
23:30 1021 30.15 850 25.1 16.5 61.8 48 5.5 42
23:35 1021 30.15 850 25.1 16.5 61.7 48 5.6 42.1
23:40 1021 30.15 850 25.1 16.4 61.6 48 5.6 42
23:45 1021 30.15 850 25.1 16.4 61.5 49 5.6 42.2
23:50 1021 30.15 850 25.1 16.3 61.3 49 5.6 42.1
23:55 1021 30.15 850 25.1 16.2 61.2 49 5.6 42.1
24:00 1021 30.15 850 25.1 16.2 61.1 49 5.6 42.1